DLH7M EDDH-EDDM
Flight info
| Callsign | DLH7M |
|---|---|
| Flight time | 1h 0m |
| Altitude | 35000 |
| Route | AMLUH2G AMLUH M852 DENIX DCT ZUCKA DCT SODRO/N0450F310 T703 LULAR/N0450F300 T105 LANDU LANDU2A |
| Aircraft | A321/M-SDE3FGHIRWY/LB1 |
Departure
| Time | 2026-05-06 16:02 |
|---|---|
| Airport | Hamburg Helmut Schmidt Airport (EDDH) |
Arrival
| Time | 2026-05-06 17:02 |
|---|---|
| Airport | Munich Airport (EDDM) |
| Time | Latitude | Longitude | Altitude | Speed | Heading |
|---|---|---|---|---|---|
| 2026-05-06 15:10 | 53.63331 | 10.00358 | 49 ft | 0 kts | 86° |
| 2026-05-06 15:48 | 53.63330 | 10.00321 | 48 ft | 4 kts | 86° |
| 2026-05-06 15:48 | 53.63328 | 10.00285 | 46 ft | 4 kts | 92° |
| 2026-05-06 15:48 | 53.63335 | 10.00245 | 45 ft | 4 kts | 140° |
| 2026-05-06 15:49 | 53.63355 | 10.00230 | 48 ft | 2 kts | 176° |
| 2026-05-06 15:49 | 53.63356 | 10.00230 | 48 ft | 0 kts | 176° |
| 2026-05-06 15:51 | 53.63351 | 10.00230 | 47 ft | 1 kts | 176° |
| 2026-05-06 15:51 | 53.63329 | 10.00233 | 45 ft | 5 kts | 176° |
| 2026-05-06 15:52 | 53.63279 | 10.00239 | 48 ft | 9 kts | 176° |
| 2026-05-06 15:52 | 53.63215 | 10.00247 | 48 ft | 10 kts | 176° |
| 2026-05-06 15:52 | 53.63145 | 10.00255 | 47 ft | 10 kts | 176° |
| 2026-05-06 15:52 | 53.63074 | 10.00259 | 48 ft | 10 kts | 189° |
| 2026-05-06 15:53 | 53.63011 | 10.00201 | 48 ft | 9 kts | 212° |
| 2026-05-06 15:53 | 53.62969 | 10.00156 | 48 ft | 7 kts | 213° |
| 2026-05-06 15:53 | 53.62944 | 10.00129 | 48 ft | 0 kts | 213° |
| 2026-05-06 15:54 | 53.62943 | 10.00128 | 48 ft | 0 kts | 213° |
| 2026-05-06 15:55 | 53.62941 | 10.00126 | 48 ft | 2 kts | 213° |
| 2026-05-06 15:55 | 53.62916 | 10.00098 | 46 ft | 7 kts | 213° |
| 2026-05-06 15:55 | 53.62874 | 10.00047 | 47 ft | 7 kts | 227° |
| 2026-05-06 15:56 | 53.62871 | 10.00040 | 48 ft | 0 kts | 232° |
| 2026-05-06 15:57 | 53.62868 | 10.00031 | 48 ft | 4 kts | 236° |
| 2026-05-06 15:57 | 53.62849 | 9.99974 | 48 ft | 1 kts | 242° |
| 2026-05-06 15:58 | 53.62846 | 9.99963 | 48 ft | 2 kts | 242° |
| 2026-05-06 15:59 | 53.62840 | 9.99946 | 46 ft | 3 kts | 242° |
| 2026-05-06 15:59 | 53.62819 | 9.99878 | 44 ft | 10 kts | 244° |
| 2026-05-06 15:59 | 53.62840 | 9.99771 | 45 ft | 8 kts | 326° |
| 2026-05-06 15:59 | 53.62845 | 9.99767 | 45 ft | 0 kts | 329° |
| 2026-05-06 16:01 | 53.62986 | 9.99642 | 43 ft | 58 kts | 333° |
| 2026-05-06 16:01 | 53.63554 | 9.99155 | 47 ft | 123 kts | 333° |
| 2026-05-06 16:01 | 53.64480 | 9.98359 | 72 ft | 171 kts | 331° |
| 2026-05-06 16:02 | 53.65509 | 9.97468 | 820 ft | 164 kts | 335° |
| 2026-05-06 16:02 | 53.66534 | 9.96590 | 1459 ft | 170 kts | 338° |
| 2026-05-06 16:02 | 53.67647 | 9.95640 | 1784 ft | 188 kts | 338° |
| 2026-05-06 16:02 | 53.68902 | 9.94813 | 2120 ft | 200 kts | 354° |
| 2026-05-06 16:03 | 53.70294 | 9.94693 | 2598 ft | 202 kts | 6° |
| 2026-05-06 16:03 | 53.71713 | 9.94774 | 3151 ft | 204 kts | 14° |
| 2026-05-06 16:03 | 53.72991 | 9.95694 | 3775 ft | 200 kts | 40° |
| 2026-05-06 16:03 | 53.73814 | 9.97543 | 4387 ft | 200 kts | 68° |
| 2026-05-06 16:04 | 53.74091 | 9.99877 | 4938 ft | 207 kts | 83° |
| 2026-05-06 16:04 | 53.74188 | 10.02323 | 5498 ft | 212 kts | 93° |
| 2026-05-06 16:04 | 53.73821 | 10.04780 | 5918 ft | 226 kts | 113° |
| 2026-05-06 16:04 | 53.73036 | 10.07181 | 6133 ft | 247 kts | 118° |
| 2026-05-06 16:05 | 53.72154 | 10.09796 | 6543 ft | 262 kts | 117° |
| 2026-05-06 16:05 | 53.71240 | 10.12513 | 7216 ft | 269 kts | 118° |
| 2026-05-06 16:05 | 53.70312 | 10.15274 | 7907 ft | 273 kts | 118° |
| 2026-05-06 16:05 | 53.69295 | 10.18007 | 8571 ft | 278 kts | 128° |
| 2026-05-06 16:06 | 53.67861 | 10.20226 | 9211 ft | 284 kts | 146° |
| 2026-05-06 16:06 | 53.66066 | 10.21649 | 9823 ft | 288 kts | 164° |
| 2026-05-06 16:06 | 53.64094 | 10.22540 | 10188 ft | 304 kts | 165° |
| 2026-05-06 16:06 | 53.61982 | 10.23499 | 10340 ft | 324 kts | 165° |
| 2026-05-06 16:07 | 53.59740 | 10.24529 | 10463 ft | 344 kts | 165° |
| 2026-05-06 16:07 | 53.57383 | 10.25616 | 10715 ft | 357 kts | 164° |
| 2026-05-06 16:07 | 53.54977 | 10.26728 | 11261 ft | 361 kts | 163° |
| 2026-05-06 16:07 | 53.52548 | 10.27848 | 11865 ft | 362 kts | 163° |
| 2026-05-06 16:08 | 53.50104 | 10.28968 | 12450 ft | 366 kts | 163° |
| 2026-05-06 16:08 | 53.47647 | 10.30089 | 13093 ft | 366 kts | 163° |
| 2026-05-06 16:08 | 53.45178 | 10.31210 | 13685 ft | 368 kts | 164° |
| 2026-05-06 16:08 | 53.42698 | 10.32338 | 14157 ft | 372 kts | 164° |
| 2026-05-06 16:09 | 53.40185 | 10.33476 | 14632 ft | 375 kts | 165° |
| 2026-05-06 16:09 | 53.37662 | 10.34612 | 15122 ft | 377 kts | 165° |
| 2026-05-06 16:09 | 53.35120 | 10.35753 | 15650 ft | 379 kts | 165° |
| 2026-05-06 16:09 | 53.32573 | 10.36896 | 16140 ft | 382 kts | 166° |
| 2026-05-06 16:10 | 53.30004 | 10.38044 | 16652 ft | 383 kts | 166° |
| 2026-05-06 16:10 | 53.27421 | 10.39205 | 17083 ft | 386 kts | 166° |
| 2026-05-06 16:10 | 53.24823 | 10.40372 | 17530 ft | 388 kts | 166° |
| 2026-05-06 16:10 | 53.22241 | 10.41528 | 17977 ft | 390 kts | 166° |
| 2026-05-06 16:11 | 53.19606 | 10.42701 | 18387 ft | 393 kts | 166° |
| 2026-05-06 16:11 | 53.16959 | 10.43873 | 18745 ft | 395 kts | 166° |
| 2026-05-06 16:11 | 53.14256 | 10.45069 | 19117 ft | 398 kts | 166° |
| 2026-05-06 16:11 | 53.11603 | 10.46190 | 19496 ft | 400 kts | 168° |
| 2026-05-06 16:12 | 53.08881 | 10.47160 | 19842 ft | 402 kts | 170° |
| 2026-05-06 16:12 | 53.06125 | 10.48007 | 20205 ft | 404 kts | 171° |
| 2026-05-06 16:12 | 53.03350 | 10.48799 | 20569 ft | 406 kts | 172° |
| 2026-05-06 16:12 | 53.00552 | 10.49589 | 20946 ft | 409 kts | 171° |
| 2026-05-06 16:13 | 52.97744 | 10.50401 | 21324 ft | 411 kts | 171° |
| 2026-05-06 16:13 | 52.94922 | 10.51246 | 21710 ft | 413 kts | 171° |
| 2026-05-06 16:13 | 52.92089 | 10.52119 | 22109 ft | 416 kts | 171° |
| 2026-05-06 16:13 | 52.89236 | 10.53009 | 22484 ft | 418 kts | 171° |
| 2026-05-06 16:14 | 52.86369 | 10.53906 | 22832 ft | 421 kts | 170° |
| 2026-05-06 16:14 | 52.83482 | 10.54808 | 23182 ft | 423 kts | 171° |
| 2026-05-06 16:14 | 52.80584 | 10.55708 | 23508 ft | 426 kts | 171° |
| 2026-05-06 16:14 | 52.77660 | 10.56609 | 23795 ft | 428 kts | 170° |
| 2026-05-06 16:15 | 52.74727 | 10.57510 | 24089 ft | 429 kts | 170° |
| 2026-05-06 16:15 | 52.71787 | 10.58410 | 24421 ft | 430 kts | 169° |
| 2026-05-06 16:15 | 52.68837 | 10.59311 | 24698 ft | 432 kts | 170° |
| 2026-05-06 16:15 | 52.65876 | 10.60214 | 25063 ft | 433 kts | 170° |
| 2026-05-06 16:16 | 52.62931 | 10.61112 | 25414 ft | 435 kts | 169° |
| 2026-05-06 16:16 | 52.59947 | 10.62022 | 25733 ft | 437 kts | 169° |
| 2026-05-06 16:16 | 52.56950 | 10.62937 | 26050 ft | 438 kts | 169° |
| 2026-05-06 16:16 | 52.53948 | 10.63853 | 26314 ft | 441 kts | 169° |
| 2026-05-06 16:17 | 52.50926 | 10.64770 | 26626 ft | 441 kts | 169° |
| 2026-05-06 16:17 | 52.47906 | 10.65686 | 26929 ft | 442 kts | 169° |
| 2026-05-06 16:17 | 52.44888 | 10.66601 | 27189 ft | 443 kts | 169° |
| 2026-05-06 16:17 | 52.41887 | 10.67510 | 27428 ft | 444 kts | 169° |
| 2026-05-06 16:18 | 52.38845 | 10.68430 | 27658 ft | 446 kts | 169° |
| 2026-05-06 16:18 | 52.35788 | 10.69351 | 27878 ft | 447 kts | 169° |
| 2026-05-06 16:18 | 52.32732 | 10.70269 | 28170 ft | 447 kts | 168° |
| 2026-05-06 16:18 | 52.29679 | 10.71184 | 28496 ft | 446 kts | 168° |
| 2026-05-06 16:19 | 52.26632 | 10.72098 | 28826 ft | 445 kts | 169° |
| 2026-05-06 16:19 | 52.23590 | 10.73009 | 29167 ft | 443 kts | 169° |
| 2026-05-06 16:19 | 52.20565 | 10.73918 | 29509 ft | 442 kts | 169° |
| 2026-05-06 16:19 | 52.17540 | 10.74827 | 29838 ft | 441 kts | 169° |
| 2026-05-06 16:20 | 52.14521 | 10.75729 | 30110 ft | 440 kts | 169° |
| 2026-05-06 16:20 | 52.11507 | 10.76626 | 30360 ft | 440 kts | 170° |
| 2026-05-06 16:20 | 52.08502 | 10.77522 | 30613 ft | 439 kts | 170° |
| 2026-05-06 16:20 | 52.05499 | 10.78419 | 30854 ft | 439 kts | 170° |
| 2026-05-06 16:21 | 52.02494 | 10.79315 | 31090 ft | 438 kts | 172° |
| 2026-05-06 16:21 | 51.99496 | 10.80205 | 31373 ft | 437 kts | 172° |
| 2026-05-06 16:21 | 51.96516 | 10.81091 | 31626 ft | 436 kts | 172° |
| 2026-05-06 16:21 | 51.93541 | 10.81975 | 31898 ft | 434 kts | 173° |
| 2026-05-06 16:22 | 51.90567 | 10.82854 | 32148 ft | 433 kts | 173° |
| 2026-05-06 16:22 | 51.87605 | 10.83726 | 32371 ft | 433 kts | 173° |
| 2026-05-06 16:22 | 51.84653 | 10.84599 | 32632 ft | 431 kts | 173° |
| 2026-05-06 16:22 | 51.81715 | 10.85483 | 33016 ft | 428 kts | 173° |
| 2026-05-06 16:23 | 51.79776 | 10.86066 | 33194 ft | 427 kts | 173° |
| 2026-05-06 16:23 | 51.76862 | 10.86924 | 33363 ft | 427 kts | 173° |
| 2026-05-06 16:23 | 51.73929 | 10.87775 | 33571 ft | 427 kts | 173° |
| 2026-05-06 16:23 | 51.71000 | 10.88618 | 33794 ft | 427 kts | 174° |
| 2026-05-06 16:24 | 51.67166 | 10.90059 | 34002 ft | 431 kts | 165° |
| 2026-05-06 16:24 | 51.65283 | 10.91276 | 34105 ft | 434 kts | 159° |
| 2026-05-06 16:24 | 51.62580 | 10.93411 | 34240 ft | 436 kts | 158° |
| 2026-05-06 16:24 | 51.59879 | 10.95560 | 34383 ft | 436 kts | 158° |
| 2026-05-06 16:25 | 51.57160 | 10.97720 | 34521 ft | 436 kts | 158° |
| 2026-05-06 16:25 | 51.54439 | 10.99874 | 34689 ft | 436 kts | 158° |
| 2026-05-06 16:25 | 51.48987 | 11.04169 | 34781 ft | 436 kts | 158° |
| 2026-05-06 16:26 | 51.43501 | 11.08467 | 34771 ft | 435 kts | 158° |
| 2026-05-06 16:26 | 51.38042 | 11.12720 | 34774 ft | 437 kts | 158° |
| 2026-05-06 16:27 | 51.32622 | 11.16961 | 34769 ft | 436 kts | 158° |
| 2026-05-06 16:27 | 51.27164 | 11.21216 | 34772 ft | 437 kts | 159° |
| 2026-05-06 16:28 | 51.21685 | 11.25468 | 34756 ft | 438 kts | 159° |
| 2026-05-06 16:28 | 51.16195 | 11.29721 | 34756 ft | 440 kts | 159° |
| 2026-05-06 16:29 | 51.10683 | 11.33972 | 34767 ft | 440 kts | 159° |
| 2026-05-06 16:29 | 51.05161 | 11.38220 | 34774 ft | 441 kts | 159° |
| 2026-05-06 16:30 | 51.00566 | 11.41743 | 34758 ft | 441 kts | 160° |
| 2026-05-06 16:30 | 50.94115 | 11.46687 | 34786 ft | 440 kts | 160° |
| 2026-05-06 16:31 | 50.88609 | 11.50897 | 34792 ft | 439 kts | 160° |
| 2026-05-06 16:31 | 50.83106 | 11.55086 | 34794 ft | 439 kts | 160° |
| 2026-05-06 16:32 | 50.77606 | 11.59274 | 34791 ft | 438 kts | 160° |
| 2026-05-06 16:32 | 50.72117 | 11.63438 | 34798 ft | 437 kts | 160° |
| 2026-05-06 16:33 | 50.66634 | 11.67572 | 34800 ft | 436 kts | 160° |
| 2026-05-06 16:34 | 50.58482 | 11.73706 | 34782 ft | 435 kts | 160° |
| 2026-05-06 16:34 | 50.53021 | 11.77809 | 34801 ft | 435 kts | 160° |
| 2026-05-06 16:35 | 50.47565 | 11.81897 | 34811 ft | 435 kts | 160° |
| 2026-05-06 16:35 | 50.42079 | 11.85840 | 34820 ft | 433 kts | 162° |
| 2026-05-06 16:36 | 50.36536 | 11.89540 | 34827 ft | 433 kts | 163° |
| 2026-05-06 16:36 | 50.30988 | 11.93212 | 34828 ft | 433 kts | 163° |
| 2026-05-06 16:37 | 50.25453 | 11.96922 | 34824 ft | 433 kts | 162° |
| 2026-05-06 16:37 | 50.19922 | 12.00652 | 34821 ft | 433 kts | 162° |
| 2026-05-06 16:38 | 50.14388 | 12.04374 | 34794 ft | 433 kts | 162° |
| 2026-05-06 16:38 | 50.08844 | 12.08081 | 34800 ft | 433 kts | 163° |
| 2026-05-06 16:39 | 50.03301 | 12.11779 | 34792 ft | 434 kts | 163° |
| 2026-05-06 16:39 | 49.97757 | 12.15473 | 34803 ft | 434 kts | 162° |
| 2026-05-06 16:40 | 49.92208 | 12.19158 | 34801 ft | 433 kts | 163° |
| 2026-05-06 16:40 | 49.86665 | 12.22825 | 34811 ft | 433 kts | 163° |
| 2026-05-06 16:41 | 49.81121 | 12.26478 | 34808 ft | 433 kts | 163° |
| 2026-05-06 16:41 | 49.75579 | 12.30129 | 34774 ft | 433 kts | 163° |
| 2026-05-06 16:42 | 49.70296 | 12.34595 | 34789 ft | 444 kts | 149° |
| 2026-05-06 16:42 | 49.65394 | 12.40365 | 34539 ft | 442 kts | 149° |
| 2026-05-06 16:42 | 49.62947 | 12.43228 | 33903 ft | 441 kts | 150° |
| 2026-05-06 16:43 | 49.60497 | 12.46083 | 33150 ft | 441 kts | 150° |
| 2026-05-06 16:43 | 49.58048 | 12.48924 | 32354 ft | 441 kts | 150° |
| 2026-05-06 16:43 | 49.55592 | 12.51765 | 31549 ft | 442 kts | 150° |
| 2026-05-06 16:43 | 49.53129 | 12.54613 | 30727 ft | 443 kts | 150° |
| 2026-05-06 16:44 | 49.50669 | 12.57462 | 29915 ft | 444 kts | 149° |
| 2026-05-06 16:44 | 49.48199 | 12.60321 | 28991 ft | 444 kts | 149° |
| 2026-05-06 16:44 | 49.45731 | 12.63178 | 27970 ft | 445 kts | 149° |
| 2026-05-06 16:44 | 49.43264 | 12.66073 | 27030 ft | 447 kts | 148° |
| 2026-05-06 16:45 | 49.40754 | 12.68789 | 26369 ft | 435 kts | 155° |
| 2026-05-06 16:45 | 49.38062 | 12.70759 | 25725 ft | 422 kts | 166° |
| 2026-05-06 16:45 | 49.35258 | 12.71773 | 25081 ft | 409 kts | 178° |
| 2026-05-06 16:45 | 49.32461 | 12.71773 | 24449 ft | 399 kts | 189° |
| 2026-05-06 16:46 | 49.29778 | 12.70890 | 23834 ft | 391 kts | 200° |
| 2026-05-06 16:46 | 49.27285 | 12.69288 | 23142 ft | 387 kts | 206° |
| 2026-05-06 16:46 | 49.24856 | 12.67543 | 22406 ft | 384 kts | 206° |
| 2026-05-06 16:46 | 49.22432 | 12.65815 | 21662 ft | 380 kts | 206° |
| 2026-05-06 16:47 | 49.20060 | 12.64131 | 20930 ft | 377 kts | 206° |
| 2026-05-06 16:47 | 49.17695 | 12.62448 | 20219 ft | 374 kts | 206° |
| 2026-05-06 16:47 | 49.15343 | 12.60769 | 19527 ft | 372 kts | 206° |
| 2026-05-06 16:47 | 49.13008 | 12.59097 | 18860 ft | 369 kts | 206° |
| 2026-05-06 16:48 | 49.10720 | 12.57458 | 18204 ft | 367 kts | 206° |
| 2026-05-06 16:48 | 49.08411 | 12.55806 | 17485 ft | 365 kts | 206° |
| 2026-05-06 16:48 | 49.06121 | 12.54169 | 16782 ft | 362 kts | 206° |
| 2026-05-06 16:48 | 49.03851 | 12.52548 | 16131 ft | 359 kts | 206° |
| 2026-05-06 16:49 | 49.01597 | 12.50944 | 15485 ft | 356 kts | 206° |
| 2026-05-06 16:49 | 48.99367 | 12.49352 | 14852 ft | 353 kts | 206° |
| 2026-05-06 16:49 | 48.97150 | 12.47766 | 14221 ft | 351 kts | 206° |
| 2026-05-06 16:49 | 48.94954 | 12.46192 | 13570 ft | 348 kts | 206° |
| 2026-05-06 16:50 | 48.92766 | 12.44628 | 12810 ft | 346 kts | 206° |
| 2026-05-06 16:50 | 48.90589 | 12.43077 | 12121 ft | 344 kts | 206° |
| 2026-05-06 16:50 | 48.88424 | 12.41540 | 11417 ft | 343 kts | 206° |
| 2026-05-06 16:50 | 48.86265 | 12.40006 | 10728 ft | 342 kts | 205° |
| 2026-05-06 16:51 | 48.84122 | 12.38482 | 10107 ft | 339 kts | 206° |
| 2026-05-06 16:51 | 48.81990 | 12.36968 | 9856 ft | 339 kts | 205° |
| 2026-05-06 16:51 | 48.79888 | 12.35483 | 9778 ft | 324 kts | 205° |
| 2026-05-06 16:51 | 48.77828 | 12.34393 | 9798 ft | 303 kts | 195° |
| 2026-05-06 16:52 | 48.75849 | 12.33638 | 9790 ft | 284 kts | 195° |
| 2026-05-06 16:52 | 48.73986 | 12.32923 | 9790 ft | 272 kts | 196° |
| 2026-05-06 16:52 | 48.72160 | 12.32219 | 9793 ft | 270 kts | 195° |
| 2026-05-06 16:52 | 48.70344 | 12.31520 | 9794 ft | 269 kts | 195° |
| 2026-05-06 16:53 | 48.68533 | 12.30827 | 9699 ft | 268 kts | 195° |
| 2026-05-06 16:53 | 48.66732 | 12.30135 | 9275 ft | 267 kts | 195° |
| 2026-05-06 16:53 | 48.64954 | 12.29444 | 8848 ft | 267 kts | 195° |
| 2026-05-06 16:53 | 48.63141 | 12.28728 | 8453 ft | 265 kts | 195° |
| 2026-05-06 16:54 | 48.61383 | 12.28026 | 8068 ft | 264 kts | 195° |
| 2026-05-06 16:54 | 48.59613 | 12.27312 | 7669 ft | 264 kts | 195° |
| 2026-05-06 16:54 | 48.57842 | 12.26586 | 7262 ft | 263 kts | 195° |
| 2026-05-06 16:54 | 48.56078 | 12.25855 | 6889 ft | 263 kts | 195° |
| 2026-05-06 16:55 | 48.54317 | 12.25112 | 6470 ft | 263 kts | 195° |
| 2026-05-06 16:55 | 48.52558 | 12.24358 | 6101 ft | 262 kts | 196° |
| 2026-05-06 16:55 | 48.50798 | 12.23598 | 5673 ft | 264 kts | 195° |
| 2026-05-06 16:55 | 48.49033 | 12.22823 | 5292 ft | 264 kts | 195° |
| 2026-05-06 16:56 | 48.47281 | 12.22021 | 5041 ft | 261 kts | 195° |
| 2026-05-06 16:56 | 48.45530 | 12.21207 | 4991 ft | 263 kts | 196° |
| 2026-05-06 16:56 | 48.43834 | 12.20430 | 4997 ft | 248 kts | 195° |
| 2026-05-06 16:56 | 48.42242 | 12.19633 | 5008 ft | 238 kts | 204° |
| 2026-05-06 16:57 | 48.40842 | 12.18311 | 5002 ft | 239 kts | 215° |
| 2026-05-06 16:57 | 48.39723 | 12.16461 | 4992 ft | 241 kts | 236° |
| 2026-05-06 16:57 | 48.39095 | 12.14115 | 5007 ft | 245 kts | 257° |
| 2026-05-06 16:57 | 48.38883 | 12.11587 | 5001 ft | 240 kts | 263° |
| 2026-05-06 16:58 | 48.38715 | 12.09189 | 4970 ft | 220 kts | 262° |
| 2026-05-06 16:58 | 48.38557 | 12.06971 | 4775 ft | 211 kts | 262° |
| 2026-05-06 16:58 | 48.38391 | 12.04780 | 4441 ft | 210 kts | 264° |
| 2026-05-06 16:58 | 48.38229 | 12.02617 | 4173 ft | 207 kts | 263° |
| 2026-05-06 16:59 | 48.38069 | 12.00468 | 3862 ft | 205 kts | 264° |
| 2026-05-06 16:59 | 48.37914 | 11.98361 | 3566 ft | 200 kts | 265° |
| 2026-05-06 16:59 | 48.37769 | 11.96367 | 3369 ft | 182 kts | 263° |
| 2026-05-06 16:59 | 48.37620 | 11.94552 | 3096 ft | 171 kts | 263° |
| 2026-05-06 17:00 | 48.37491 | 11.92814 | 2855 ft | 163 kts | 264° |
| 2026-05-06 17:00 | 48.37371 | 11.91150 | 2669 ft | 161 kts | 264° |
| 2026-05-06 17:00 | 48.37245 | 11.89470 | 2456 ft | 164 kts | 264° |
| 2026-05-06 17:00 | 48.37117 | 11.87786 | 2240 ft | 160 kts | 264° |
| 2026-05-06 17:01 | 48.36990 | 11.86141 | 2004 ft | 157 kts | 266° |
| 2026-05-06 17:01 | 48.36867 | 11.84512 | 1827 ft | 156 kts | 268° |
| 2026-05-06 17:01 | 48.36744 | 11.82896 | 1622 ft | 155 kts | 265° |
| 2026-05-06 17:01 | 48.36629 | 11.81337 | 1486 ft | 140 kts | 263° |
| 2026-05-06 17:02 | 48.36537 | 11.80143 | 1474 ft | 82 kts | 263° |
| 2026-05-06 17:02 | 48.36482 | 11.79432 | 1485 ft | 61 kts | 263° |
| 2026-05-06 17:02 | 48.36423 | 11.78973 | 1478 ft | 33 kts | 243° |
| 2026-05-06 17:02 | 48.36293 | 11.78693 | 1479 ft | 33 kts | 231° |
| 2026-05-06 17:03 | 48.36219 | 11.78548 | 1475 ft | 9 kts | 231° |
| 2026-05-06 17:03 | 48.36162 | 11.78481 | 1485 ft | 14 kts | 193° |
| 2026-05-06 17:03 | 48.36050 | 11.78499 | 1478 ft | 16 kts | 149° |
| 2026-05-06 17:03 | 48.36042 | 11.78657 | 1485 ft | 19 kts | 84° |
| 2026-05-06 17:04 | 48.36057 | 11.78863 | 1485 ft | 21 kts | 83° |
| 2026-05-06 17:04 | 48.36075 | 11.79082 | 1482 ft | 21 kts | 83° |
| 2026-05-06 17:04 | 48.36088 | 11.79239 | 1477 ft | 14 kts | 83° |
| 2026-05-06 17:04 | 48.36058 | 11.79321 | 1479 ft | 10 kts | 165° |
| 2026-05-06 17:05 | 48.35984 | 11.79334 | 1486 ft | 10 kts | 173° |
| 2026-05-06 17:05 | 48.35975 | 11.79336 | 1485 ft | 0 kts | 173° |
| 2026-05-06 17:06 | 48.35972 | 11.79336 | 1475 ft | 1 kts | 173° |
| 2026-05-06 17:06 | 48.35943 | 11.79343 | 1482 ft | 8 kts | 166° |
| 2026-05-06 17:06 | 48.35872 | 11.79381 | 1477 ft | 12 kts | 171° |
| 2026-05-06 17:06 | 48.35786 | 11.79406 | 1480 ft | 13 kts | 148° |
| 2026-05-06 17:07 | 48.35775 | 11.79543 | 1479 ft | 16 kts | 83° |
| 2026-05-06 17:07 | 48.35788 | 11.79714 | 1480 ft | 17 kts | 84° |
| 2026-05-06 17:07 | 48.35802 | 11.79897 | 1485 ft | 18 kts | 83° |
| 2026-05-06 17:07 | 48.35795 | 11.80048 | 1476 ft | 13 kts | 130° |
| 2026-05-06 17:08 | 48.35702 | 11.80076 | 1476 ft | 14 kts | 184° |
| 2026-05-06 17:08 | 48.35645 | 11.80059 | 1472 ft | 5 kts | 216° |
| 2026-05-06 17:08 | 48.35633 | 11.79998 | 1478 ft | 7 kts | 262° |
| 2026-05-06 17:08 | 48.35632 | 11.79979 | 1485 ft | 0 kts | 263° |